sensor_id;sensor_type;location;lat;lon;timestamp;temperature;humidity
6496;DHT22;3281;47.658;9.166;2023-02-12T00:00:04;0.50;1.00
6496;DHT22;3281;47.658;9.166;2023-02-12T00:02:31;0.50;1.00
6496;DHT22;3281;47.658;9.166;2023-02-12T00:04:59;0.50;1.00
6496;DHT22;3281;47.658;9.166;2023-02-12T00:07:29;0.40;1.00
6496;DHT22;3281;47.658;9.166;2023-02-12T00:09:56;0.40;1.00
6496;DHT22;3281;47.658;9.166;2023-02-12T00:12:23;0.30;1.00
6496;DHT22;3281;47.658;9.166;2023-02-12T00:14:49;0.20;1.00
6496;DHT22;3281;47.658;9.166;2023-02-12T00:17:16;0.20;1.00
6496;DHT22;3281;47.658;9.166;2023-02-12T00:19:43;0.10;1.00
6496;DHT22;3281;47.658;9.166;2023-02-12T00:22:11;0.10;1.00
6496;DHT22;3281;47.658;9.166;2023-02-12T00:24:37;0.10;1.00
6496;DHT22;3281;47.658;9.166;2023-02-12T00:27:04;0.10;1.00
6496;DHT22;3281;47.658;9.166;2023-02-12T00:29:31;0.00;1.00
6496;DHT22;3281;47.658;9.166;2023-02-12T00:31:57;0.20;1.00
6496;DHT22;3281;47.658;9.166;2023-02-12T00:34:24;0.20;1.00
6496;DHT22;3281;47.658;9.166;2023-02-12T00:36:51;0.20;1.00
6496;DHT22;3281;47.658;9.166;2023-02-12T00:39:19;0.30;1.00
6496;DHT22;3281;47.658;9.166;2023-02-12T00:41:45;0.30;1.00
6496;DHT22;3281;47.658;9.166;2023-02-12T00:44:12;0.30;1.00
6496;DHT22;3281;47.658;9.166;2023-02-12T00:46:39;0.20;1.00
6496;DHT22;3281;47.658;9.166;2023-02-12T00:49:06;0.20;1.00
6496;DHT22;3281;47.658;9.166;2023-02-12T00:51:32;0.30;1.00
6496;DHT22;3281;47.658;9.166;2023-02-12T00:53:59;0.30;1.00
6496;DHT22;3281;47.658;9.166;2023-02-12T00:56:27;0.30;1.00
6496;DHT22;3281;47.658;9.166;2023-02-12T00:58:54;0.40;1.00
6496;DHT22;3281;47.658;9.166;2023-02-12T01:01:20;0.20;1.00
6496;DHT22;3281;47.658;9.166;2023-02-12T01:03:47;0.00;1.00
6496;DHT22;3281;47.658;9.166;2023-02-12T01:06:14;-0.10;1.00
6496;DHT22;3281;47.658;9.166;2023-02-12T01:08:40;-0.10;1.00
6496;DHT22;3281;47.658;9.166;2023-02-12T01:11:10;-0.10;1.00
6496;DHT22;3281;47.658;9.166;2023-02-12T01:13:39;-0.10;1.00
6496;DHT22;3281;47.658;9.166;2023-02-12T01:16:08;-0.10;1.00
6496;DHT22;3281;47.658;9.166;2023-02-12T01:18:37;-0.20;1.00
6496;DHT22;3281;47.658;9.166;2023-02-12T01:21:08;0.00;1.00
6496;DHT22;3281;47.658;9.166;2023-02-12T01:23:35;0.10;1.00
6496;DHT22;3281;47.658;9.166;2023-02-12T01:26:02;0.00;1.00
6496;DHT22;3281;47.658;9.166;2023-02-12T01:28:29;0.00;1.00
6496;DHT22;3281;47.658;9.166;2023-02-12T01:30:57;0.00;1.00
6496;DHT22;3281;47.658;9.166;2023-02-12T01:33:23;0.00;1.00
6496;DHT22;3281;47.658;9.166;2023-02-12T01:35:50;0.10;1.00
6496;DHT22;3281;47.658;9.166;2023-02-12T01:38:17;0.10;1.00
6496;DHT22;3281;47.658;9.166;2023-02-12T01:40:44;0.10;1.00
6496;DHT22;3281;47.658;9.166;2023-02-12T01:43:11;0.10;1.00
6496;DHT22;3281;47.658;9.166;2023-02-12T01:45:50;0.10;1.00
6496;DHT22;3281;47.658;9.166;2023-02-12T01:48:22;0.10;1.00
6496;DHT22;3281;47.658;9.166;2023-02-12T01:50:52;0.10;1.00
6496;DHT22;3281;47.658;9.166;2023-02-12T01:53:19;0.10;1.00
6496;DHT22;3281;47.658;9.166;2023-02-12T01:55:48;0.20;1.00
6496;DHT22;3281;47.658;9.166;2023-02-12T01:58:16;0.30;1.00
6496;DHT22;3281;47.658;9.166;2023-02-12T02:00:44;0.30;1.00
6496;DHT22;3281;47.658;9.166;2023-02-12T02:03:11;0.00;1.00
6496;DHT22;3281;47.658;9.166;2023-02-12T02:05:45;-0.10;1.00
6496;DHT22;3281;47.658;9.166;2023-02-12T02:08:12;-0.30;1.00
6496;DHT22;3281;47.658;9.166;2023-02-12T02:10:39;-0.30;1.00
6496;DHT22;3281;47.658;9.166;2023-02-12T02:13:06;-0.30;1.00
6496;DHT22;3281;47.658;9.166;2023-02-12T02:15:54;-0.30;1.00
6496;DHT22;3281;47.658;9.166;2023-02-12T02:18:26;-0.20;1.00
6496;DHT22;3281;47.658;9.166;2023-02-12T02:24:15;-0.10;1.00
6496;DHT22;3281;47.658;9.166;2023-02-12T02:27:14;-0.10;1.00
6496;DHT22;3281;47.658;9.166;2023-02-12T02:29:52;0.00;1.00
6496;DHT22;3281;47.658;9.166;2023-02-12T02:32:26;-0.10;1.00
6496;DHT22;3281;47.658;9.166;2023-02-12T02:34:59;-0.20;1.00
6496;DHT22;3281;47.658;9.166;2023-02-12T02:37:31;-0.20;1.00
6496;DHT22;3281;47.658;9.166;2023-02-12T02:40:04;-0.20;1.00
6496;DHT22;3281;47.658;9.166;2023-02-12T02:42:40;-0.10;1.00
6496;DHT22;3281;47.658;9.166;2023-02-12T02:45:10;-0.10;1.00
6496;DHT22;3281;47.658;9.166;2023-02-12T02:47:43;-0.10;1.00
6496;DHT22;3281;47.658;9.166;2023-02-12T02:50:13;-0.10;1.00
6496;DHT22;3281;47.658;9.166;2023-02-12T02:52:44;-0.10;1.00
6496;DHT22;3281;47.658;9.166;2023-02-12T02:55:16;-0.10;1.00
6496;DHT22;3281;47.658;9.166;2023-02-12T02:57:46;0.00;1.00
6496;DHT22;3281;47.658;9.166;2023-02-12T03:00:18;-0.30;1.00
6496;DHT22;3281;47.658;9.166;2023-02-12T03:02:49;-0.50;1.00
6496;DHT22;3281;47.658;9.166;2023-02-12T03:05:22;-0.50;1.00
6496;DHT22;3281;47.658;9.166;2023-02-12T03:07:53;-0.50;1.00
6496;DHT22;3281;47.658;9.166;2023-02-12T03:10:25;-0.60;1.00
6496;DHT22;3281;47.658;9.166;2023-02-12T03:12:56;-0.70;1.00
6496;DHT22;3281;47.658;9.166;2023-02-12T03:15:30;-0.80;1.00
6496;DHT22;3281;47.658;9.166;2023-02-12T03:18:00;-0.70;1.00
6496;DHT22;3281;47.658;9.166;2023-02-12T03:20:32;-0.50;1.00
6496;DHT22;3281;47.658;9.166;2023-02-12T03:23:03;-0.50;1.00
6496;DHT22;3281;47.658;9.166;2023-02-12T03:25:34;-0.50;1.00
6496;DHT22;3281;47.658;9.166;2023-02-12T03:28:04;-0.50;1.00
6496;DHT22;3281;47.658;9.166;2023-02-12T03:30:38;-0.40;1.00
6496;DHT22;3281;47.658;9.166;2023-02-12T03:33:16;-0.40;1.00
6496;DHT22;3281;47.658;9.166;2023-02-12T03:35:55;-0.40;1.00
6496;DHT22;3281;47.658;9.166;2023-02-12T03:38:33;-0.40;1.00
6496;DHT22;3281;47.658;9.166;2023-02-12T03:41:04;-0.50;1.00
6496;DHT22;3281;47.658;9.166;2023-02-12T03:43:38;-0.50;1.00
6496;DHT22;3281;47.658;9.166;2023-02-12T03:46:13;-0.40;1.00
6496;DHT22;3281;47.658;9.166;2023-02-12T03:48:45;-0.30;1.00
6496;DHT22;3281;47.658;9.166;2023-02-12T03:51:18;-0.40;1.00
6496;DHT22;3281;47.658;9.166;2023-02-12T03:53:46;-0.60;1.00
6496;DHT22;3281;47.658;9.166;2023-02-12T03:56:18;-0.70;1.00
6496;DHT22;3281;47.658;9.166;2023-02-12T03:58:45;-0.70;1.00
6496;DHT22;3281;47.658;9.166;2023-02-12T04:01:12;-0.70;1.00
6496;DHT22;3281;47.658;9.166;2023-02-12T04:03:40;-0.60;1.00
6496;DHT22;3281;47.658;9.166;2023-02-12T04:06:19;-0.60;1.00
6496;DHT22;3281;47.658;9.166;2023-02-12T04:08:46;-0.80;1.00
6496;DHT22;3281;47.658;9.166;2023-02-12T04:11:19;-1.00;1.00
6496;DHT22;3281;47.658;9.166;2023-02-12T04:13:55;-1.10;1.00
6496;DHT22;3281;47.658;9.166;2023-02-12T04:16:30;-1.10;1.00
6496;DHT22;3281;47.658;9.166;2023-02-12T04:18:58;-1.00;1.00
6496;DHT22;3281;47.658;9.166;2023-02-12T04:21:43;-0.90;1.00
6496;DHT22;3281;47.658;9.166;2023-02-12T04:24:17;-0.90;1.00
6496;DHT22;3281;47.658;9.166;2023-02-12T04:26:49;-0.80;1.00
6496;DHT22;3281;47.658;9.166;2023-02-12T04:29:23;-0.70;1.00
6496;DHT22;3281;47.658;9.166;2023-02-12T04:31:55;-0.60;1.00
6496;DHT22;3281;47.658;9.166;2023-02-12T04:34:28;-0.50;1.00
6496;DHT22;3281;47.658;9.166;2023-02-12T04:37:04;-0.60;1.00
6496;DHT22;3281;47.658;9.166;2023-02-12T04:39:36;-0.70;1.00
6496;DHT22;3281;47.658;9.166;2023-02-12T04:42:04;-0.70;1.00
6496;DHT22;3281;47.658;9.166;2023-02-12T04:44:32;-0.70;1.00
6496;DHT22;3281;47.658;9.166;2023-02-12T04:46:59;-0.60;1.00
6496;DHT22;3281;47.658;9.166;2023-02-12T04:49:26;-0.60;1.00
6496;DHT22;3281;47.658;9.166;2023-02-12T04:51:53;-0.50;1.00
6496;DHT22;3281;47.658;9.166;2023-02-12T04:54:22;-0.30;1.00
6496;DHT22;3281;47.658;9.166;2023-02-12T04:56:50;-0.40;1.00
6496;DHT22;3281;47.658;9.166;2023-02-12T04:59:16;-0.40;1.00
6496;DHT22;3281;47.658;9.166;2023-02-12T05:01:43;-0.50;1.00
6496;DHT22;3281;47.658;9.166;2023-02-12T05:04:12;-0.40;1.00
6496;DHT22;3281;47.658;9.166;2023-02-12T05:06:40;-0.40;1.00
6496;DHT22;3281;47.658;9.166;2023-02-12T05:09:09;-0.40;1.00
6496;DHT22;3281;47.658;9.166;2023-02-12T05:11:39;-0.40;1.00
6496;DHT22;3281;47.658;9.166;2023-02-12T05:14:06;-0.30;1.00
6496;DHT22;3281;47.658;9.166;2023-02-12T05:16:33;-0.20;1.00
6496;DHT22;3281;47.658;9.166;2023-02-12T05:19:00;-0.30;1.00
6496;DHT22;3281;47.658;9.166;2023-02-12T05:21:26;-0.30;1.00
6496;DHT22;3281;47.658;9.166;2023-02-12T05:23:53;-0.20;1.00
6496;DHT22;3281;47.658;9.166;2023-02-12T05:26:21;-0.10;1.00
6496;DHT22;3281;47.658;9.166;2023-02-12T05:28:49;-0.10;1.00
6496;DHT22;3281;47.658;9.166;2023-02-12T05:31:17;-0.10;1.00
6496;DHT22;3281;47.658;9.166;2023-02-12T05:33:46;-0.10;1.00
6496;DHT22;3281;47.658;9.166;2023-02-12T05:36:14;-0.40;1.00
6496;DHT22;3281;47.658;9.166;2023-02-12T05:38:41;-0.50;1.00
6496;DHT22;3281;47.658;9.166;2023-02-12T05:41:10;-0.70;1.00
6496;DHT22;3281;47.658;9.166;2023-02-12T05:43:38;-0.70;1.00
6496;DHT22;3281;47.658;9.166;2023-02-12T05:46:07;-0.80;1.00
6496;DHT22;3281;47.658;9.166;2023-02-12T05:48:35;-0.90;1.00
6496;DHT22;3281;47.658;9.166;2023-02-12T05:51:02;-0.90;1.00
6496;DHT22;3281;47.658;9.166;2023-02-12T05:53:29;-0.90;1.00
6496;DHT22;3281;47.658;9.166;2023-02-12T05:56:06;-0.70;1.00
6496;DHT22;3281;47.658;9.166;2023-02-12T05:58:33;-0.80;1.00
6496;DHT22;3281;47.658;9.166;2023-02-12T06:01:00;-0.80;1.00
6496;DHT22;3281;47.658;9.166;2023-02-12T06:03:28;-0.90;1.00
6496;DHT22;3281;47.658;9.166;2023-02-12T06:05:55;-0.80;1.00
6496;DHT22;3281;47.658;9.166;2023-02-12T06:08:21;-0.90;1.00
6496;DHT22;3281;47.658;9.166;2023-02-12T06:10:48;-0.90;1.00
6496;DHT22;3281;47.658;9.166;2023-02-12T06:13:15;-0.90;1.00
6496;DHT22;3281;47.658;9.166;2023-02-12T06:15:41;-0.90;1.00
6496;DHT22;3281;47.658;9.166;2023-02-12T06:18:08;-0.80;1.00
6496;DHT22;3281;47.658;9.166;2023-02-12T06:20:37;-0.80;1.00
6496;DHT22;3281;47.658;9.166;2023-02-12T06:23:04;-0.80;1.00
6496;DHT22;3281;47.658;9.166;2023-02-12T06:25:31;-0.80;1.00
6496;DHT22;3281;47.658;9.166;2023-02-12T06:27:58;-0.60;1.00
6496;DHT22;3281;47.658;9.166;2023-02-12T06:30:24;-0.60;1.00
6496;DHT22;3281;47.658;9.166;2023-02-12T06:32:51;-0.60;1.00
6496;DHT22;3281;47.658;9.166;2023-02-12T06:35:18;-0.60;1.00
6496;DHT22;3281;47.658;9.166;2023-02-12T06:37:46;-0.60;1.00
6496;DHT22;3281;47.658;9.166;2023-02-12T06:40:13;-0.70;1.00
6496;DHT22;3281;47.658;9.166;2023-02-12T06:42:40;-0.70;1.00
6496;DHT22;3281;47.658;9.166;2023-02-12T06:45:07;-0.50;1.00
6496;DHT22;3281;47.658;9.166;2023-02-12T06:47:34;-0.50;1.00
6496;DHT22;3281;47.658;9.166;2023-02-12T06:50:00;-0.50;1.00
6496;DHT22;3281;47.658;9.166;2023-02-12T06:52:27;-0.50;1.00
6496;DHT22;3281;47.658;9.166;2023-02-12T06:54:55;-0.40;1.00
6496;DHT22;3281;47.658;9.166;2023-02-12T06:57:22;-0.50;1.00
6496;DHT22;3281;47.658;9.166;2023-02-12T06:59:49;-0.50;1.00
6496;DHT22;3281;47.658;9.166;2023-02-12T07:02:16;-0.40;1.00
6496;DHT22;3281;47.658;9.166;2023-02-12T07:04:42;-0.40;1.00
6496;DHT22;3281;47.658;9.166;2023-02-12T07:07:09;-0.40;1.00
6496;DHT22;3281;47.658;9.166;2023-02-12T07:09:36;-0.40;1.00
6496;DHT22;3281;47.658;9.166;2023-02-12T07:12:04;-0.30;1.00
6496;DHT22;3281;47.658;9.166;2023-02-12T07:14:31;-0.30;1.00
6496;DHT22;3281;47.658;9.166;2023-02-12T07:16:58;-0.30;1.00
6496;DHT22;3281;47.658;9.166;2023-02-12T07:19:28;-0.30;1.00
6496;DHT22;3281;47.658;9.166;2023-02-12T07:21:55;-0.30;1.00
6496;DHT22;3281;47.658;9.166;2023-02-12T07:24:21;-0.30;1.00
6496;DHT22;3281;47.658;9.166;2023-02-12T07:26:48;-0.30;1.00
6496;DHT22;3281;47.658;9.166;2023-02-12T07:29:16;-0.30;1.00
6496;DHT22;3281;47.658;9.166;2023-02-12T07:31:43;-0.20;1.00
6496;DHT22;3281;47.658;9.166;2023-02-12T07:34:10;-0.20;1.00
6496;DHT22;3281;47.658;9.166;2023-02-12T07:36:37;-0.10;1.00
6496;DHT22;3281;47.658;9.166;2023-02-12T07:39:04;0.00;1.00
6496;DHT22;3281;47.658;9.166;2023-02-12T07:41:32;0.10;1.00
6496;DHT22;3281;47.658;9.166;2023-02-12T07:44:01;0.20;1.00
6496;DHT22;3281;47.658;9.166;2023-02-12T07:46:33;0.30;1.00
6496;DHT22;3281;47.658;9.166;2023-02-12T07:49:02;0.50;1.00
6496;DHT22;3281;47.658;9.166;2023-02-12T07:51:30;0.50;1.00
6496;DHT22;3281;47.658;9.166;2023-02-12T07:53:58;0.60;1.00
6496;DHT22;3281;47.658;9.166;2023-02-12T07:56:27;0.70;1.00
6496;DHT22;3281;47.658;9.166;2023-02-12T07:58:56;0.80;1.00
6496;DHT22;3281;47.658;9.166;2023-02-12T08:01:25;0.90;1.00
6496;DHT22;3281;47.658;9.166;2023-02-12T08:03:57;1.10;1.00
6496;DHT22;3281;47.658;9.166;2023-02-12T08:06:26;1.30;1.00
6496;DHT22;3281;47.658;9.166;2023-02-12T08:08:54;1.40;1.00
6496;DHT22;3281;47.658;9.166;2023-02-12T08:11:22;1.50;1.00
6496;DHT22;3281;47.658;9.166;2023-02-12T08:13:48;1.60;1.00
6496;DHT22;3281;47.658;9.166;2023-02-12T08:16:16;1.70;1.00
6496;DHT22;3281;47.658;9.166;2023-02-12T08:18:44;1.70;1.00
6496;DHT22;3281;47.658;9.166;2023-02-12T08:21:14;1.90;1.00
6496;DHT22;3281;47.658;9.166;2023-02-12T08:23:42;2.10;1.00
6496;DHT22;3281;47.658;9.166;2023-02-12T08:26:10;2.20;1.00
6496;DHT22;3281;47.658;9.166;2023-02-12T08:28:42;2.30;1.00
6496;DHT22;3281;47.658;9.166;2023-02-12T08:31:11;2.40;1.00
6496;DHT22;3281;47.658;9.166;2023-02-12T08:33:38;2.40;1.00
6496;DHT22;3281;47.658;9.166;2023-02-12T08:36:06;2.60;1.00
6496;DHT22;3281;47.658;9.166;2023-02-12T08:38:36;2.70;1.00
6496;DHT22;3281;47.658;9.166;2023-02-12T08:41:05;2.80;1.00
6496;DHT22;3281;47.658;9.166;2023-02-12T08:43:32;3.00;1.00
6496;DHT22;3281;47.658;9.166;2023-02-12T08:46:03;3.10;1.00
6496;DHT22;3281;47.658;9.166;2023-02-12T08:48:31;3.30;1.00
6496;DHT22;3281;47.658;9.166;2023-02-12T08:51:03;3.60;1.00
6496;DHT22;3281;47.658;9.166;2023-02-12T08:53:30;3.80;1.00
6496;DHT22;3281;47.658;9.166;2023-02-12T08:55:58;4.00;1.00
6496;DHT22;3281;47.658;9.166;2023-02-12T08:58:25;4.20;1.00
6496;DHT22;3281;47.658;9.166;2023-02-12T09:00:52;4.40;1.00
6496;DHT22;3281;47.658;9.166;2023-02-12T09:03:19;4.50;1.00
6496;DHT22;3281;47.658;9.166;2023-02-12T09:05:45;4.60;1.00
6496;DHT22;3281;47.658;9.166;2023-02-12T09:08:12;4.90;1.00
6496;DHT22;3281;47.658;9.166;2023-02-12T09:10:39;5.20;1.00
6496;DHT22;3281;47.658;9.166;2023-02-12T09:13:08;5.50;1.00
6496;DHT22;3281;47.658;9.166;2023-02-12T09:15:36;5.70;1.00
6496;DHT22;3281;47.658;9.166;2023-02-12T09:18:03;5.80;1.00
6496;DHT22;3281;47.658;9.166;2023-02-12T09:20:30;6.20;1.00
6496;DHT22;3281;47.658;9.166;2023-02-12T09:22:57;6.50;1.00
6496;DHT22;3281;47.658;9.166;2023-02-12T09:25:24;6.50;1.00
6496;DHT22;3281;47.658;9.166;2023-02-12T09:27:51;6.60;1.00
6496;DHT22;3281;47.658;9.166;2023-02-12T09:30:19;6.70;1.00
6496;DHT22;3281;47.658;9.166;2023-02-12T09:32:46;7.30;1.00
6496;DHT22;3281;47.658;9.166;2023-02-12T09:35:12;7.90;1.00
6496;DHT22;3281;47.658;9.166;2023-02-12T09:37:39;8.30;1.00
6496;DHT22;3281;47.658;9.166;2023-02-12T09:40:07;8.30;1.00
6496;DHT22;3281;47.658;9.166;2023-02-12T09:42:48;9.10;1.00
6496;DHT22;3281;47.658;9.166;2023-02-12T09:45:20;9.30;1.00
6496;DHT22;3281;47.658;9.166;2023-02-12T09:47:54;9.90;1.00
6496;DHT22;3281;47.658;9.166;2023-02-12T09:50:33;10.40;1.00
6496;DHT22;3281;47.658;9.166;2023-02-12T09:53:03;10.80;1.00
6496;DHT22;3281;47.658;9.166;2023-02-12T09:55:32;10.80;1.00
6496;DHT22;3281;47.658;9.166;2023-02-12T09:58:02;11.20;1.00
6496;DHT22;3281;47.658;9.166;2023-02-12T10:00:31;11.70;1.00
6496;DHT22;3281;47.658;9.166;2023-02-12T10:03:00;11.80;1.00
6496;DHT22;3281;47.658;9.166;2023-02-12T10:05:31;12.00;1.00
6496;DHT22;3281;47.658;9.166;2023-02-12T10:11:27;12.20;1.00
6496;DHT22;3281;47.658;9.166;2023-02-12T10:14:04;12.70;1.00
6496;DHT22;3281;47.658;9.166;2023-02-12T10:16:44;13.10;1.00
6496;DHT22;3281;47.658;9.166;2023-02-12T10:19:26;13.00;1.00
6496;DHT22;3281;47.658;9.166;2023-02-12T10:22:03;12.70;1.00
6496;DHT22;3281;47.658;9.166;2023-02-12T10:24:43;12.50;1.00
6496;DHT22;3281;47.658;9.166;2023-02-12T10:27:14;13.30;1.00
6496;DHT22;3281;47.658;9.166;2023-02-12T10:29:42;13.80;1.00
6496;DHT22;3281;47.658;9.166;2023-02-12T10:32:18;14.50;1.00
6496;DHT22;3281;47.658;9.166;2023-02-12T10:34:49;14.70;1.00
6496;DHT22;3281;47.658;9.166;2023-02-12T10:37:24;14.80;1.00
6496;DHT22;3281;47.658;9.166;2023-02-12T10:39:55;15.10;1.00
6496;DHT22;3281;47.658;9.166;2023-02-12T10:42:33;15.40;1.00
6496;DHT22;3281;47.658;9.166;2023-02-12T10:45:01;14.60;1.00
6496;DHT22;3281;47.658;9.166;2023-02-12T10:47:29;14.20;1.00
6496;DHT22;3281;47.658;9.166;2023-02-12T10:49:58;14.70;1.00
6496;DHT22;3281;47.658;9.166;2023-02-12T10:52:35;14.60;1.00
6496;DHT22;3281;47.658;9.166;2023-02-12T10:55:25;14.30;1.00
6496;DHT22;3281;47.658;9.166;2023-02-12T10:57:53;14.30;1.00
6496;DHT22;3281;47.658;9.166;2023-02-12T11:00:24;14.30;1.00
6496;DHT22;3281;47.658;9.166;2023-02-12T11:03:19;14.40;1.00
6496;DHT22;3281;47.658;9.166;2023-02-12T11:05:46;14.80;1.00
6496;DHT22;3281;47.658;9.166;2023-02-12T11:08:32;15.90;1.00
6496;DHT22;3281;47.658;9.166;2023-02-12T11:11:05;15.60;1.00
6496;DHT22;3281;47.658;9.166;2023-02-12T11:13:33;15.30;1.00
6496;DHT22;3281;47.658;9.166;2023-02-12T11:16:01;14.10;1.00
6496;DHT22;3281;47.658;9.166;2023-02-12T11:18:30;12.80;1.00
6496;DHT22;3281;47.658;9.166;2023-02-12T11:21:00;12.40;1.00
6496;DHT22;3281;47.658;9.166;2023-02-12T11:23:29;12.20;1.00
6496;DHT22;3281;47.658;9.166;2023-02-12T11:25:58;11.80;1.00
6496;DHT22;3281;47.658;9.166;2023-02-12T11:28:26;11.60;1.00
6496;DHT22;3281;47.658;9.166;2023-02-12T11:30:55;11.90;1.00
6496;DHT22;3281;47.658;9.166;2023-02-12T11:33:30;12.00;1.00
6496;DHT22;3281;47.658;9.166;2023-02-12T11:36:00;12.70;1.00
6496;DHT22;3281;47.658;9.166;2023-02-12T11:38:31;13.70;1.00
6496;DHT22;3281;47.658;9.166;2023-02-12T11:41:03;13.80;1.00
6496;DHT22;3281;47.658;9.166;2023-02-12T11:43:34;12.50;1.00
6496;DHT22;3281;47.658;9.166;2023-02-12T11:46:03;12.10;1.00
6496;DHT22;3281;47.658;9.166;2023-02-12T11:48:35;11.50;1.00
6496;DHT22;3281;47.658;9.166;2023-02-12T11:51:05;11.30;1.00
6496;DHT22;3281;47.658;9.166;2023-02-12T11:53:36;11.00;1.00
6496;DHT22;3281;47.658;9.166;2023-02-12T11:56:06;11.20;1.00
6496;DHT22;3281;47.658;9.166;2023-02-12T11:58:33;11.20;1.00
6496;DHT22;3281;47.658;9.166;2023-02-12T12:01:04;11.30;1.00
6496;DHT22;3281;47.658;9.166;2023-02-12T12:03:40;11.50;1.00
6496;DHT22;3281;47.658;9.166;2023-02-12T12:06:20;11.90;1.00
6496;DHT22;3281;47.658;9.166;2023-02-12T12:08:52;12.60;1.00
6496;DHT22;3281;47.658;9.166;2023-02-12T12:11:23;13.20;1.00
6496;DHT22;3281;47.658;9.166;2023-02-12T12:13:56;14.00;1.00
6496;DHT22;3281;47.658;9.166;2023-02-12T12:16:29;14.60;1.00
6496;DHT22;3281;47.658;9.166;2023-02-12T12:19:18;14.80;1.00
6496;DHT22;3281;47.658;9.166;2023-02-12T12:22:15;14.50;1.00
6496;DHT22;3281;47.658;9.166;2023-02-12T12:24:46;14.20;1.00
6496;DHT22;3281;47.658;9.166;2023-02-12T12:27:20;13.60;1.00
6496;DHT22;3281;47.658;9.166;2023-02-12T12:30:18;12.70;1.00
6496;DHT22;3281;47.658;9.166;2023-02-12T12:32:46;12.50;1.00
6496;DHT22;3281;47.658;9.166;2023-02-12T12:35:18;12.20;1.00
6496;DHT22;3281;47.658;9.166;2023-02-12T12:37:54;11.90;1.00
6496;DHT22;3281;47.658;9.166;2023-02-12T12:40:36;11.90;1.00
6496;DHT22;3281;47.658;9.166;2023-02-12T12:43:10;12.00;1.00
6496;DHT22;3281;47.658;9.166;2023-02-12T12:46:00;11.60;1.00
6496;DHT22;3281;47.658;9.166;2023-02-12T12:48:40;11.80;1.00
6496;DHT22;3281;47.658;9.166;2023-02-12T12:51:23;12.20;1.00
6496;DHT22;3281;47.658;9.166;2023-02-12T12:54:03;12.40;1.00
6496;DHT22;3281;47.658;9.166;2023-02-12T12:56:47;13.00;1.00
6496;DHT22;3281;47.658;9.166;2023-02-12T12:59:40;13.40;1.00
6496;DHT22;3281;47.658;9.166;2023-02-12T13:02:46;13.80;1.00
6496;DHT22;3281;47.658;9.166;2023-02-12T13:05:30;14.40;1.00
6496;DHT22;3281;47.658;9.166;2023-02-12T13:08:07;14.90;1.00
6496;DHT22;3281;47.658;9.166;2023-02-12T13:10:45;15.10;1.00
6496;DHT22;3281;47.658;9.166;2023-02-12T13:13:21;15.30;1.00
6496;DHT22;3281;47.658;9.166;2023-02-12T13:15:55;15.40;1.00
6496;DHT22;3281;47.658;9.166;2023-02-12T13:18:33;16.60;1.00
6496;DHT22;3281;47.658;9.166;2023-02-12T13:21:07;16.30;1.00
6496;DHT22;3281;47.658;9.166;2023-02-12T13:23:43;16.00;1.00
6496;DHT22;3281;47.658;9.166;2023-02-12T13:26:15;16.50;1.00
6496;DHT22;3281;47.658;9.166;2023-02-12T13:28:47;15.60;1.00
6496;DHT22;3281;47.658;9.166;2023-02-12T13:31:19;15.90;1.00
6496;DHT22;3281;47.658;9.166;2023-02-12T13:33:49;14.80;1.00
6496;DHT22;3281;47.658;9.166;2023-02-12T13:36:16;14.30;1.00
6496;DHT22;3281;47.658;9.166;2023-02-12T13:38:48;13.90;1.00
6496;DHT22;3281;47.658;9.166;2023-02-12T13:41:17;13.60;1.00
6496;DHT22;3281;47.658;9.166;2023-02-12T13:43:58;13.70;1.00
6496;DHT22;3281;47.658;9.166;2023-02-12T13:46:33;13.60;1.00
6496;DHT22;3281;47.658;9.166;2023-02-12T13:49:16;14.10;1.00
6496;DHT22;3281;47.658;9.166;2023-02-12T13:51:46;14.60;1.00
6496;DHT22;3281;47.658;9.166;2023-02-12T13:54:30;15.20;1.00
6496;DHT22;3281;47.658;9.166;2023-02-12T13:56:59;16.10;1.00
6496;DHT22;3281;47.658;9.166;2023-02-12T13:59:48;16.80;1.00
6496;DHT22;3281;47.658;9.166;2023-02-12T14:02:27;17.50;1.00
6496;DHT22;3281;47.658;9.166;2023-02-12T14:04:55;17.90;1.00
6496;DHT22;3281;47.658;9.166;2023-02-12T14:07:39;18.70;1.00
6496;DHT22;3281;47.658;9.166;2023-02-12T14:10:19;19.10;1.00
6496;DHT22;3281;47.658;9.166;2023-02-12T14:12:46;17.80;1.00
6496;DHT22;3281;47.658;9.166;2023-02-12T14:15:29;16.90;1.00
6496;DHT22;3281;47.658;9.166;2023-02-12T14:18:05;16.40;1.00
6496;DHT22;3281;47.658;9.166;2023-02-12T14:20:33;16.40;1.00
6496;DHT22;3281;47.658;9.166;2023-02-12T14:23:18;15.80;1.00
6496;DHT22;3281;47.658;9.166;2023-02-12T14:25:56;15.10;1.00
6496;DHT22;3281;47.658;9.166;2023-02-12T14:28:27;15.30;1.00
6496;DHT22;3281;47.658;9.166;2023-02-12T14:31:25;14.80;1.00
6496;DHT22;3281;47.658;9.166;2023-02-12T14:37:33;15.30;1.00
6496;DHT22;3281;47.658;9.166;2023-02-12T14:43:28;15.70;1.00
6496;DHT22;3281;47.658;9.166;2023-02-12T14:45:56;15.30;1.00
6496;DHT22;3281;47.658;9.166;2023-02-12T14:48:46;15.30;1.00
6496;DHT22;3281;47.658;9.166;2023-02-12T14:51:20;14.80;1.00
6496;DHT22;3281;47.658;9.166;2023-02-12T14:53:48;14.40;1.00
6496;DHT22;3281;47.658;9.166;2023-02-12T14:56:19;14.10;1.00
6496;DHT22;3281;47.658;9.166;2023-02-12T14:58:48;13.90;1.00
6496;DHT22;3281;47.658;9.166;2023-02-12T15:01:16;13.70;1.00
6496;DHT22;3281;47.658;9.166;2023-02-12T15:03:47;13.40;1.00
6496;DHT22;3281;47.658;9.166;2023-02-12T15:06:16;13.20;1.00
6496;DHT22;3281;47.658;9.166;2023-02-12T15:08:48;13.00;1.00
6496;DHT22;3281;47.658;9.166;2023-02-12T15:11:26;12.80;1.00
6496;DHT22;3281;47.658;9.166;2023-02-12T15:13:58;12.50;1.00
6496;DHT22;3281;47.658;9.166;2023-02-12T15:16:33;12.50;1.00
6496;DHT22;3281;47.658;9.166;2023-02-12T15:19:04;12.40;1.00
6496;DHT22;3281;47.658;9.166;2023-02-12T15:21:34;12.30;1.00
6496;DHT22;3281;47.658;9.166;2023-02-12T15:24:03;12.10;1.00
6496;DHT22;3281;47.658;9.166;2023-02-12T15:26:32;12.10;1.00
6496;DHT22;3281;47.658;9.166;2023-02-12T15:29:01;12.10;1.00
6496;DHT22;3281;47.658;9.166;2023-02-12T15:31:30;11.90;1.00
6496;DHT22;3281;47.658;9.166;2023-02-12T15:33:59;11.80;1.00
6496;DHT22;3281;47.658;9.166;2023-02-12T15:36:29;11.80;1.00
6496;DHT22;3281;47.658;9.166;2023-02-12T15:39:00;11.70;1.00
6496;DHT22;3281;47.658;9.166;2023-02-12T15:41:35;11.60;1.00
6496;DHT22;3281;47.658;9.166;2023-02-12T15:44:18;11.50;1.00
6496;DHT22;3281;47.658;9.166;2023-02-12T15:46:54;11.40;1.00
6496;DHT22;3281;47.658;9.166;2023-02-12T15:49:23;11.40;1.00
6496;DHT22;3281;47.658;9.166;2023-02-12T15:51:51;11.40;1.00
6496;DHT22;3281;47.658;9.166;2023-02-12T15:54:19;11.30;1.00
6496;DHT22;3281;47.658;9.166;2023-02-12T15:56:46;11.30;1.00
6496;DHT22;3281;47.658;9.166;2023-02-12T15:59:19;11.10;1.00
6496;DHT22;3281;47.658;9.166;2023-02-12T16:01:52;10.90;1.00
6496;DHT22;3281;47.658;9.166;2023-02-12T16:04:19;10.70;1.00
6496;DHT22;3281;47.658;9.166;2023-02-12T16:06:46;10.70;1.00
6496;DHT22;3281;47.658;9.166;2023-02-12T16:09:16;10.60;1.00
6496;DHT22;3281;47.658;9.166;2023-02-12T16:11:45;10.50;1.00
6496;DHT22;3281;47.658;9.166;2023-02-12T16:14:19;10.40;1.00
6496;DHT22;3281;47.658;9.166;2023-02-12T16:16:49;10.20;1.00
6496;DHT22;3281;47.658;9.166;2023-02-12T16:19:19;10.10;1.00
6496;DHT22;3281;47.658;9.166;2023-02-12T16:21:49;9.90;1.00
6496;DHT22;3281;47.658;9.166;2023-02-12T16:24:28;9.80;1.00
6496;DHT22;3281;47.658;9.166;2023-02-12T16:26:58;9.40;1.00
6496;DHT22;3281;47.658;9.166;2023-02-12T16:29:29;9.30;1.00
6496;DHT22;3281;47.658;9.166;2023-02-12T16:31:59;9.20;1.00
6496;DHT22;3281;47.658;9.166;2023-02-12T16:34:29;9.20;1.00
6496;DHT22;3281;47.658;9.166;2023-02-12T16:36:55;9.10;1.00
6496;DHT22;3281;47.658;9.166;2023-02-12T16:42:25;8.60;1.00
6496;DHT22;3281;47.658;9.166;2023-02-12T16:44:55;8.60;1.00
6496;DHT22;3281;47.658;9.166;2023-02-12T16:47:23;8.60;1.00
6496;DHT22;3281;47.658;9.166;2023-02-12T16:49:53;8.40;1.00
6496;DHT22;3281;47.658;9.166;2023-02-12T16:52:31;8.30;1.00
6496;DHT22;3281;47.658;9.166;2023-02-12T16:54:59;8.30;1.00
6496;DHT22;3281;47.658;9.166;2023-02-12T16:57:26;8.10;1.00
6496;DHT22;3281;47.658;9.166;2023-02-12T16:59:52;7.90;1.00
6496;DHT22;3281;47.658;9.166;2023-02-12T17:02:20;7.80;1.00